createdAt,value
2023-05-23T00:01:28.217Z,20.25
2023-05-23T00:04:17.299Z,30.52
2023-05-23T00:07:04.024Z,40.97
2023-05-23T00:09:49.944Z,41.80
2023-05-23T00:12:37.627Z,45.75
2023-05-23T00:15:23.637Z,45.95
2023-05-23T00:18:11.144Z,45.40
2023-05-23T00:20:57.465Z,44.50
2023-05-23T00:23:43.506Z,42.42
2023-05-23T00:26:32.064Z,44.88
2023-05-23T00:29:18.249Z,41.13
2023-05-23T00:32:04.184Z,40.25
2023-05-23T00:34:50.252Z,39.95
2023-05-23T00:37:36.152Z,39.97
2023-05-23T00:40:22.368Z,38.80
2023-05-23T00:43:08.409Z,37.13
2023-05-23T00:45:54.437Z,37.80
2023-05-23T00:48:40.413Z,34.42
2023-05-23T00:51:26.260Z,35.17
2023-05-23T00:54:12.573Z,32.88
2023-05-23T00:56:58.898Z,30.13
2023-05-23T00:59:46.892Z,34.75
2023-05-23T01:02:36.800Z,37.05
2023-05-23T01:05:24.875Z,35.58
2023-05-23T01:08:10.623Z,34.95
2023-05-23T01:10:59.197Z,35.22
2023-05-23T01:13:53.090Z,36.47
2023-05-23T01:16:39.013Z,36.65
2023-05-23T01:19:43.831Z,35.17
2023-05-23T01:22:48.657Z,34.45
2023-05-23T01:25:58.494Z,33.15
2023-05-23T01:28:49.402Z,34.53
2023-05-23T01:31:35.984Z,34.15
2023-05-23T01:34:22.386Z,33.13
2023-05-23T01:37:11.704Z,30.73
2023-05-23T01:39:57.892Z,28.80
2023-05-23T01:42:43.844Z,29.60
2023-05-23T01:45:33.111Z,28.92
2023-05-23T01:48:19.317Z,27.92
2023-05-23T01:51:05.972Z,28.30
2023-05-23T01:53:52.166Z,27.27
2023-05-23T01:56:37.927Z,26.80
2023-05-23T01:59:24.249Z,25.33
2023-05-23T02:02:10.513Z,26.85
2023-05-23T02:04:58.219Z,27.65
2023-05-23T02:07:44.090Z,25.83
2023-05-23T02:10:29.979Z,25.92
2023-05-23T02:13:15.732Z,27.33
2023-05-23T02:16:03.918Z,25.67
2023-05-23T02:18:52.605Z,26.10
2023-05-23T02:21:39.066Z,25.42
2023-05-23T02:24:24.892Z,23.27
2023-05-23T02:27:10.905Z,22.85
2023-05-23T02:29:56.708Z,22.45
2023-05-23T02:32:42.786Z,21.60
2023-05-23T02:35:28.494Z,19.75
2023-05-23T02:38:14.293Z,19.80
2023-05-23T02:41:01.249Z,19.08
2023-05-23T02:43:47.878Z,17.83
2023-05-23T02:46:35.419Z,19.50
2023-05-23T02:49:22.647Z,18.25
2023-05-23T02:52:10.095Z,17.17
2023-05-23T02:54:56.318Z,17.73
2023-05-23T02:57:42.376Z,17.88
2023-05-23T03:00:28.327Z,16.77
2023-05-23T03:03:17.670Z,15.32
2023-05-23T03:06:07.155Z,16.75
2023-05-23T03:08:53.224Z,16.38
2023-05-23T03:11:40.445Z,16.33
2023-05-23T03:14:26.404Z,15.02
2023-05-23T03:17:14.552Z,16.25
2023-05-23T03:20:00.388Z,16.88
2023-05-23T03:22:46.353Z,16.90
2023-05-23T03:25:32.284Z,16.83
2023-05-23T03:28:18.202Z,16.52
2023-05-23T03:31:04.624Z,14.15
2023-05-23T03:33:51.532Z,14.80
2023-05-23T03:36:39.343Z,14.45
2023-05-23T03:39:25.649Z,13.90
2023-05-23T03:42:11.584Z,12.43
2023-05-23T03:44:57.777Z,13.07
2023-05-23T03:47:44.446Z,12.73
2023-05-23T03:50:31.293Z,11.02
2023-05-23T03:53:17.384Z,11.95
2023-05-23T03:56:03.757Z,10.13
2023-05-23T03:58:50.926Z,10.23
2023-05-23T04:01:36.858Z,10.52
2023-05-23T04:04:25.141Z,9.48
2023-05-23T04:07:11.919Z,10.02
2023-05-23T04:10:01.378Z,9.80
2023-05-23T04:12:48.010Z,8.90
2023-05-23T04:15:36.576Z,9.00
2023-05-23T04:18:26.641Z,7.93
2023-05-23T04:21:12.459Z,8.32
2023-05-23T04:24:07.099Z,8.48
2023-05-23T04:26:56.415Z,8.18
2023-05-23T04:29:44.280Z,8.27
2023-05-23T04:32:30.141Z,8.43
2023-05-23T04:35:16.133Z,7.90
2023-05-23T04:38:02.020Z,7.55
2023-05-23T04:40:49.400Z,7.40
2023-05-23T04:43:46.252Z,7.35
2023-05-23T04:46:37.097Z,6.88
2023-05-23T04:49:29.360Z,8.25
2023-05-23T04:52:15.159Z,13.13
2023-05-23T04:55:01.868Z,8.65
2023-05-23T04:57:48.083Z,18.77
2023-05-23T05:00:34.319Z,7.18
2023-05-23T05:03:20.644Z,6.38
2023-05-23T05:06:07.714Z,7.53
2023-05-23T05:08:55.166Z,13.40
2023-05-23T05:11:40.918Z,37.70
2023-05-23T05:14:27.774Z,9.70
2023-05-23T05:17:13.936Z,9.25
2023-05-23T05:20:18.436Z,22.33
2023-05-23T05:23:04.773Z,10.75
2023-05-23T05:25:50.701Z,10.60
2023-05-23T05:28:36.584Z,10.02
2023-05-23T05:31:22.661Z,9.98
2023-05-23T05:34:08.580Z,10.88
2023-05-23T05:36:56.476Z,11.80
2023-05-23T05:39:44.413Z,13.02
2023-05-23T05:42:30.836Z,13.38
2023-05-23T05:45:17.152Z,14.48
2023-05-23T05:48:03.783Z,14.25
2023-05-23T05:50:49.845Z,14.93
2023-05-23T05:53:35.555Z,14.15
2023-05-23T05:56:22.666Z,15.57
2023-05-23T05:59:08.597Z,15.75
2023-05-23T06:01:54.906Z,15.90
2023-05-23T06:04:41.448Z,14.57
2023-05-23T06:07:27.319Z,14.55
2023-05-23T06:10:13.726Z,15.27
2023-05-23T06:13:00.690Z,13.98
2023-05-23T06:15:47.151Z,13.38
2023-05-23T06:18:33.358Z,14.98
2023-05-23T06:21:19.291Z,13.60
2023-05-23T06:24:08.702Z,14.43
2023-05-23T06:26:54.716Z,14.30
2023-05-23T06:29:40.681Z,14.57
2023-05-23T06:32:26.433Z,15.10
2023-05-23T06:35:12.130Z,15.90
2023-05-23T06:37:58.069Z,15.43
2023-05-23T06:40:43.844Z,15.55
2023-05-23T06:43:29.732Z,16.25
2023-05-23T06:46:32.133Z,15.35
2023-05-23T06:49:18.806Z,15.35
2023-05-23T06:52:04.572Z,16.85
2023-05-23T06:54:51.859Z,15.70
2023-05-23T06:57:38.473Z,15.10
2023-05-23T07:00:24.284Z,16.42
2023-05-23T07:03:22.278Z,15.88
2023-05-23T07:06:08.923Z,16.17
2023-05-23T07:08:55.186Z,15.25
2023-05-23T07:11:42.034Z,16.27
2023-05-23T07:14:28.439Z,14.13
2023-05-23T07:17:14.317Z,14.70
2023-05-23T07:20:00.476Z,15.20
2023-05-23T07:22:46.218Z,15.00
2023-05-23T07:25:31.979Z,15.30
2023-05-23T07:28:17.768Z,14.98
2023-05-23T07:31:03.701Z,13.32
2023-05-23T07:33:50.408Z,12.82
2023-05-23T07:36:47.590Z,8.85
2023-05-23T07:39:34.392Z,11.45
2023-05-23T07:42:21.098Z,10.25
2023-05-23T07:45:08.019Z,10.70
2023-05-23T07:47:56.596Z,9.25
2023-05-23T07:50:42.539Z,9.68
2023-05-23T07:53:28.440Z,9.38
2023-05-23T07:56:14.251Z,9.13
2023-05-23T07:59:01.568Z,9.88
2023-05-23T08:01:50.439Z,9.38
2023-05-23T08:04:40.261Z,9.85
2023-05-23T08:07:26.342Z,10.60
2023-05-23T08:10:16.068Z,10.75
2023-05-23T08:13:06.783Z,11.23
2023-05-23T08:15:57.637Z,11.45
2023-05-23T08:18:47.645Z,11.48
2023-05-23T08:21:33.491Z,13.30
2023-05-23T08:24:20.224Z,12.57
2023-05-23T08:27:08.026Z,13.48
2023-05-23T08:29:55.779Z,12.43
2023-05-23T08:32:41.575Z,14.50
2023-05-23T08:35:29.312Z,12.38
2023-05-23T08:38:15.457Z,15.00
2023-05-23T08:41:17.162Z,11.93
2023-05-23T08:44:03.103Z,11.57
2023-05-23T08:46:54.161Z,12.57
2023-05-23T08:49:57.818Z,11.60
2023-05-23T08:52:51.005Z,11.18
2023-05-23T08:55:38.573Z,10.10
2023-05-23T08:58:29.380Z,10.63
2023-05-23T09:01:18.482Z,10.32
2023-05-23T09:04:07.068Z,9.48
2023-05-23T09:06:58.734Z,9.23
2023-05-23T09:09:45.278Z,6.43
2023-05-23T09:12:33.871Z,6.15
2023-05-23T09:15:20.020Z,5.70
2023-05-23T09:18:06.057Z,4.57
2023-05-23T09:20:53.511Z,4.47
2023-05-23T09:23:41.528Z,3.50
2023-05-23T09:26:28.814Z,4.00
2023-05-23T09:29:15.436Z,3.75
2023-05-23T09:32:13.030Z,3.42
2023-05-23T09:35:04.242Z,3.08
2023-05-23T09:37:50.480Z,2.78
2023-05-23T09:40:36.065Z,2.97
2023-05-23T09:43:23.611Z,3.08
2023-05-23T09:46:11.819Z,2.65
2023-05-23T09:49:00.172Z,2.53
2023-05-23T09:51:57.868Z,2.40
2023-05-23T09:54:44.500Z,2.92
2023-05-23T09:57:31.006Z,2.90
2023-05-23T10:00:17.279Z,2.40
2023-05-23T10:03:10.974Z,2.88
2023-05-23T10:05:58.564Z,2.80
2023-05-23T10:08:45.049Z,2.47
2023-05-23T10:11:34.013Z,2.83
2023-05-23T10:14:19.946Z,2.67
2023-05-23T10:17:10.069Z,3.17
2023-05-23T10:20:08.281Z,3.67
2023-05-23T10:22:54.990Z,3.47
2023-05-23T10:25:42.087Z,4.50
2023-05-23T10:28:28.204Z,5.35
2023-05-23T10:31:14.084Z,5.78
2023-05-23T10:34:16.790Z,5.75
2023-05-23T10:37:04.243Z,6.20
2023-05-23T10:39:58.557Z,6.35
2023-05-23T10:42:57.514Z,6.35
2023-05-23T10:45:43.761Z,7.40
2023-05-23T10:48:29.842Z,6.63
2023-05-23T10:51:16.001Z,6.63
2023-05-23T10:54:01.782Z,6.72
2023-05-23T10:56:47.801Z,6.30
2023-05-23T10:59:33.764Z,6.40
2023-05-23T11:02:29.797Z,6.70
2023-05-23T11:05:23.503Z,6.22
2023-05-23T11:08:16.327Z,5.28
2023-05-23T11:11:03.532Z,5.80
2023-05-23T11:13:56.765Z,6.57
2023-05-23T11:16:43.732Z,5.68
2023-05-23T11:19:30.009Z,6.45
2023-05-23T11:22:16.372Z,6.55
2023-05-23T11:25:02.997Z,6.50
2023-05-23T11:27:50.287Z,6.65
2023-05-23T11:30:37.512Z,6.78
2023-05-23T11:33:23.638Z,6.90
2023-05-23T11:36:09.556Z,6.47
2023-05-23T11:38:56.003Z,6.50
2023-05-23T11:41:43.891Z,7.63
2023-05-23T11:44:29.957Z,8.00
2023-05-23T11:47:16.062Z,7.45
2023-05-23T11:50:01.805Z,6.18
2023-05-23T11:52:51.701Z,6.65
2023-05-23T11:55:40.469Z,5.53
2023-05-23T11:58:34.872Z,5.97
2023-05-23T12:01:21.351Z,5.88
2023-05-23T12:04:11.817Z,5.50
2023-05-23T12:06:57.846Z,5.70
2023-05-23T12:09:44.344Z,6.15
2023-05-23T12:12:30.194Z,5.40
2023-05-23T12:15:17.235Z,6.10
2023-05-23T12:18:03.317Z,5.68
2023-05-23T12:20:51.488Z,5.38
2023-05-23T12:23:37.454Z,3.70
2023-05-23T12:26:23.433Z,4.90
2023-05-23T12:29:09.212Z,4.57
2023-05-23T12:31:55.130Z,3.95
2023-05-23T12:34:44.064Z,4.40
2023-05-23T12:37:29.969Z,4.85
2023-05-23T12:40:16.688Z,5.28
2023-05-23T12:43:03.027Z,5.38
2023-05-23T12:45:48.792Z,4.57
2023-05-23T12:48:34.808Z,5.18
2023-05-23T12:51:21.341Z,4.47
2023-05-23T12:54:07.273Z,4.88
2023-05-23T12:56:53.165Z,4.40
2023-05-23T12:59:39.232Z,4.57
2023-05-23T13:02:25.118Z,4.28
2023-05-23T13:05:11.447Z,4.50
2023-05-23T13:07:59.445Z,4.07
2023-05-23T13:10:45.266Z,3.97
2023-05-23T13:13:32.970Z,4.60
2023-05-23T13:16:18.963Z,4.32
2023-05-23T13:19:05.003Z,4.13
2023-05-23T13:21:50.940Z,4.05
2023-05-23T13:24:37.647Z,3.53
2023-05-23T13:27:23.515Z,3.50
2023-05-23T13:30:11.293Z,3.80
2023-05-23T13:32:57.335Z,3.92
2023-05-23T13:35:44.326Z,4.25
2023-05-23T13:38:32.054Z,4.35
2023-05-23T13:41:18.141Z,3.80
2023-05-23T13:44:04.183Z,3.60
2023-05-23T13:46:50.270Z,4.22
2023-05-23T13:49:36.364Z,3.72
2023-05-23T13:52:22.277Z,4.15
2023-05-23T13:55:08.225Z,3.65
2023-05-23T13:57:54.023Z,3.83
2023-05-23T14:00:41.267Z,4.55
2023-05-23T14:03:27.556Z,4.00
2023-05-23T14:06:13.435Z,3.65
2023-05-23T14:08:59.383Z,4.47
2023-05-23T14:11:45.415Z,4.20
2023-05-23T14:14:31.246Z,4.13
2023-05-23T14:17:17.204Z,4.03
2023-05-23T14:20:03.487Z,4.63
2023-05-23T14:22:49.890Z,4.85
2023-05-23T14:25:35.726Z,3.92
2023-05-23T14:28:21.412Z,4.13
2023-05-23T14:31:07.272Z,3.20
2023-05-23T14:33:52.871Z,3.25
2023-05-23T14:36:39.101Z,3.42
2023-05-23T14:39:25.513Z,4.00
2023-05-23T14:42:11.122Z,2.90
2023-05-23T14:44:57.014Z,3.97
2023-05-23T14:47:42.787Z,3.25
2023-05-23T14:50:28.786Z,3.13
2023-05-23T14:53:14.512Z,3.55
2023-05-23T14:56:00.730Z,3.35
2023-05-23T14:58:46.703Z,3.22
2023-05-23T15:01:32.931Z,3.13
2023-05-23T15:04:18.993Z,3.90
2023-05-23T15:07:04.795Z,3.13
2023-05-23T15:09:50.923Z,3.63
2023-05-23T15:12:37.893Z,3.63
2023-05-23T15:15:23.908Z,3.55
2023-05-23T15:18:11.715Z,3.25
2023-05-23T15:20:57.799Z,3.58
2023-05-23T15:23:43.574Z,3.30
2023-05-23T15:26:29.573Z,3.33
2023-05-23T15:29:18.024Z,3.28
2023-05-23T15:32:04.093Z,3.60
2023-05-23T15:34:50.148Z,3.05
2023-05-23T15:37:35.893Z,2.92
2023-05-23T15:40:21.881Z,15.63
2023-05-23T15:43:07.829Z,4.00
2023-05-23T15:45:53.695Z,3.70
2023-05-23T15:48:39.599Z,3.65
2023-05-23T15:51:25.680Z,4.60
2023-05-23T15:54:12.068Z,3.58
2023-05-23T15:56:57.597Z,3.33
2023-05-23T15:59:43.609Z,9.40
2023-05-23T16:02:29.873Z,4.15
2023-05-23T16:05:15.644Z,3.55
2023-05-23T16:08:01.635Z,3.70
2023-05-23T16:10:47.570Z,6.50
2023-05-23T16:13:33.764Z,3.88
2023-05-23T16:16:20.020Z,3.08
2023-05-23T16:19:05.822Z,4.63
2023-05-23T16:21:51.666Z,4.22
2023-05-23T16:24:37.771Z,7.45
2023-05-23T16:27:24.226Z,3.60
2023-05-23T16:30:10.515Z,3.28
2023-05-23T16:32:56.543Z,2.55
2023-05-23T16:35:42.565Z,2.90
2023-05-23T16:38:28.889Z,2.75
2023-05-23T16:41:14.594Z,2.90
2023-05-23T16:44:00.357Z,3.15
2023-05-23T16:46:46.280Z,3.17
2023-05-23T16:49:32.002Z,3.53
2023-05-23T16:52:18.338Z,3.10
2023-05-23T16:55:04.810Z,3.30
2023-05-23T16:57:50.700Z,3.60
2023-05-23T17:00:36.817Z,3.30
2023-05-23T17:03:22.806Z,3.75
2023-05-23T17:06:08.650Z,3.78
2023-05-23T17:08:54.427Z,3.50
2023-05-23T17:11:40.203Z,3.05
2023-05-23T17:14:26.288Z,3.50
2023-05-23T17:17:11.993Z,3.20
2023-05-23T17:19:57.977Z,2.83
2023-05-23T17:22:43.831Z,2.60
2023-05-23T17:25:29.713Z,3.47
2023-05-23T17:28:15.686Z,3.00
2023-05-23T17:31:01.916Z,2.75
2023-05-23T17:33:47.800Z,2.70
2023-05-23T17:36:35.051Z,2.55
2023-05-23T17:39:21.195Z,3.15
2023-05-23T17:42:07.114Z,3.47
2023-05-23T17:44:52.875Z,3.28
2023-05-23T17:47:39.220Z,3.25
2023-05-23T17:50:24.936Z,2.83
2023-05-23T17:53:11.432Z,3.63
2023-05-23T17:55:56.974Z,3.67
2023-05-23T17:58:44.273Z,3.00
2023-05-23T18:01:30.939Z,3.00
2023-05-23T18:04:16.677Z,4.68
2023-05-23T18:07:02.416Z,14.00
2023-05-23T18:09:48.707Z,4.20
2023-05-23T18:12:34.378Z,11.07
2023-05-23T18:15:20.428Z,4.28
2023-05-23T18:18:06.680Z,4.47
2023-05-23T18:20:52.797Z,3.33
2023-05-23T18:23:38.934Z,3.40
2023-05-23T18:26:25.823Z,5.50
2023-05-23T18:29:11.667Z,3.17
2023-05-23T18:31:57.574Z,3.40
2023-05-23T18:34:43.401Z,3.17
2023-05-23T18:37:29.385Z,3.20
2023-05-23T18:40:15.453Z,3.10
2023-05-23T18:43:01.524Z,2.72
2023-05-23T18:45:47.471Z,3.00
2023-05-23T18:48:35.669Z,2.80
2023-05-23T18:51:22.217Z,3.28
2023-05-23T18:54:08.157Z,3.08
2023-05-23T18:56:54.068Z,3.38
2023-05-23T18:59:39.875Z,2.83
2023-05-23T19:02:26.661Z,3.20
2023-05-23T19:05:12.970Z,2.85
2023-05-23T19:07:58.736Z,2.92
2023-05-23T19:10:44.760Z,2.50
2023-05-23T19:13:30.950Z,3.30
2023-05-23T19:16:17.408Z,2.85
2023-05-23T19:19:03.506Z,3.40
2023-05-23T19:21:49.201Z,2.55
2023-05-23T19:24:35.104Z,2.80
2023-05-23T19:27:20.911Z,2.92
2023-05-23T19:30:08.653Z,2.95
2023-05-23T19:32:54.260Z,2.92
2023-05-23T19:35:39.958Z,3.03
2023-05-23T19:38:25.900Z,2.45
2023-05-23T19:41:11.888Z,3.10
2023-05-23T19:43:57.735Z,2.95
2023-05-23T19:46:43.692Z,3.40
2023-05-23T19:49:29.525Z,2.90
2023-05-23T19:52:15.351Z,2.50
2023-05-23T19:55:03.377Z,2.75
2023-05-23T19:57:49.649Z,3.20
2023-05-23T20:00:35.393Z,3.42
2023-05-23T20:03:21.679Z,3.17
2023-05-23T20:06:07.653Z,2.95
2023-05-23T20:08:53.590Z,3.30
2023-05-23T20:11:39.434Z,2.80
2023-05-23T20:14:26.100Z,3.15
2023-05-23T20:17:13.188Z,2.72
2023-05-23T20:19:59.237Z,3.28
2023-05-23T20:22:45.303Z,2.60
2023-05-23T20:25:31.489Z,3.50
2023-05-23T20:28:17.643Z,3.17
2023-05-23T20:31:03.520Z,3.05
2023-05-23T20:33:49.773Z,3.25
2023-05-23T20:36:37.137Z,2.83
2023-05-23T20:39:24.114Z,41.22
2023-05-23T20:42:15.022Z,3.47
2023-05-23T20:45:01.323Z,3.38
2023-05-23T20:47:47.336Z,3.03
2023-05-23T20:50:33.824Z,3.45
2023-05-23T20:53:19.930Z,2.72
2023-05-23T20:56:06.033Z,2.83
2023-05-23T20:58:52.223Z,3.10
2023-05-23T21:01:38.318Z,2.42
2023-05-23T21:04:24.648Z,2.80
2023-05-23T21:07:10.700Z,2.90
2023-05-23T21:09:56.319Z,2.67
2023-05-23T21:12:49.115Z,3.40
2023-05-23T21:15:35.513Z,2.67
2023-05-23T21:18:22.428Z,2.67
2023-05-23T21:21:08.287Z,3.13
2023-05-23T21:23:54.101Z,2.67
2023-05-23T21:26:39.877Z,2.80
2023-05-23T21:29:25.797Z,3.10
2023-05-23T21:32:11.712Z,3.03
2023-05-23T21:34:57.668Z,3.20
2023-05-23T21:37:43.852Z,3.10
2023-05-23T21:40:29.825Z,2.88
2023-05-23T21:43:15.606Z,3.50
2023-05-23T21:46:01.555Z,2.50
2023-05-23T21:48:47.414Z,3.15
2023-05-23T21:51:33.253Z,2.92
2023-05-23T21:54:19.247Z,2.95
2023-05-23T21:57:05.352Z,3.15
2023-05-23T21:59:51.231Z,3.03
2023-05-23T22:02:37.253Z,3.05
2023-05-23T22:05:22.956Z,3.30
2023-05-23T22:08:08.889Z,2.78
2023-05-23T22:10:54.672Z,2.78
2023-05-23T22:13:43.533Z,2.92
2023-05-23T22:16:30.097Z,3.28
2023-05-23T22:19:18.077Z,3.58
2023-05-23T22:22:03.931Z,3.22
2023-05-23T22:24:49.916Z,2.92
2023-05-23T22:27:35.756Z,3.50
2023-05-23T22:30:21.661Z,2.85
2023-05-23T22:33:12.898Z,3.15
2023-05-23T22:35:58.607Z,3.08
2023-05-23T22:38:44.528Z,3.20
2023-05-23T22:41:30.980Z,2.83
2023-05-23T22:44:16.680Z,3.42
2023-05-23T22:47:03.706Z,2.90
2023-05-23T22:49:49.765Z,2.97
2023-05-23T22:52:35.487Z,3.28
2023-05-23T22:55:21.432Z,3.75
2023-05-23T22:58:08.836Z,3.63
2023-05-23T23:00:54.751Z,3.50
2023-05-23T23:03:40.635Z,3.47
2023-05-23T23:06:26.605Z,3.38
2023-05-23T23:09:12.332Z,3.80
2023-05-23T23:11:58.274Z,3.30
2023-05-23T23:14:44.104Z,3.25
2023-05-23T23:17:29.786Z,3.10
2023-05-23T23:20:17.218Z,3.88
2023-05-23T23:23:03.097Z,3.40
2023-05-23T23:25:50.189Z,3.67
2023-05-23T23:28:36.078Z,3.15
2023-05-23T23:31:21.916Z,3.03
2023-05-23T23:34:07.760Z,3.45
2023-05-23T23:36:53.629Z,3.42
2023-05-23T23:39:39.386Z,4.00
2023-05-23T23:42:25.200Z,3.35
2023-05-23T23:45:11.233Z,3.10
2023-05-23T23:47:57.386Z,3.33
2023-05-23T23:50:43.488Z,3.47
2023-05-23T23:53:30.052Z,3.80
2023-05-23T23:56:16.034Z,3.53
2023-05-23T23:59:02.013Z,3.20
